sensor_id;sensor_type;location;lat;lon;timestamp;temperature;humidity
1411;DHT22;700;51.906;8.404;2023-08-07T00:01:35;17.40;99.90
1411;DHT22;700;51.906;8.404;2023-08-07T00:06:38;17.40;99.90
1411;DHT22;700;51.906;8.404;2023-08-07T00:11:38;17.50;99.90
1411;DHT22;700;51.906;8.404;2023-08-07T00:16:42;17.30;99.90
1411;DHT22;700;51.906;8.404;2023-08-07T00:21:42;17.40;99.90
1411;DHT22;700;51.906;8.404;2023-08-07T00:26:45;17.40;99.90
1411;DHT22;700;51.906;8.404;2023-08-07T00:31:46;17.50;99.90
1411;DHT22;700;51.906;8.404;2023-08-07T00:36:46;17.50;99.90
1411;DHT22;700;51.906;8.404;2023-08-07T00:41:47;17.50;99.90
1411;DHT22;700;51.906;8.404;2023-08-07T00:46:47;17.50;99.90
1411;DHT22;700;51.906;8.404;2023-08-07T00:51:48;17.50;99.90
1411;DHT22;700;51.906;8.404;2023-08-07T00:56:51;17.50;99.90
1411;DHT22;700;51.906;8.404;2023-08-07T01:01:54;17.50;99.90
1411;DHT22;700;51.906;8.404;2023-08-07T01:06:57;17.50;99.90
1411;DHT22;700;51.906;8.404;2023-08-07T01:12:13;17.50;99.90
1411;DHT22;700;51.906;8.404;2023-08-07T01:17:19;17.50;99.90
1411;DHT22;700;51.906;8.404;2023-08-07T01:22:20;17.60;99.90
1411;DHT22;700;51.906;8.404;2023-08-07T01:37:58;17.50;99.90
1411;DHT22;700;51.906;8.404;2023-08-07T01:43:00;17.50;99.90
1411;DHT22;700;51.906;8.404;2023-08-07T01:48:04;17.60;99.90
1411;DHT22;700;51.906;8.404;2023-08-07T01:53:05;17.50;99.90
1411;DHT22;700;51.906;8.404;2023-08-07T01:58:06;17.70;99.90
1411;DHT22;700;51.906;8.404;2023-08-07T02:03:09;17.50;99.90
1411;DHT22;700;51.906;8.404;2023-08-07T02:08:11;17.50;99.90
1411;DHT22;700;51.906;8.404;2023-08-07T02:13:14;17.50;99.90
1411;DHT22;700;51.906;8.404;2023-08-07T02:18:17;17.70;99.90
1411;DHT22;700;51.906;8.404;2023-08-07T02:23:18;17.70;99.90
1411;DHT22;700;51.906;8.404;2023-08-07T02:28:18;17.70;99.90
1411;DHT22;700;51.906;8.404;2023-08-07T02:33:19;17.70;99.90
1411;DHT22;700;51.906;8.404;2023-08-07T02:38:19;17.70;99.90
1411;DHT22;700;51.906;8.404;2023-08-07T02:43:20;17.70;99.90
1411;DHT22;700;51.906;8.404;2023-08-07T02:48:21;17.80;99.90
1411;DHT22;700;51.906;8.404;2023-08-07T02:53:24;17.80;99.90
1411;DHT22;700;51.906;8.404;2023-08-07T02:58:24;17.90;99.90
1411;DHT22;700;51.906;8.404;2023-08-07T03:03:25;17.40;99.90
1411;DHT22;700;51.906;8.404;2023-08-07T03:08:28;17.50;99.90
1411;DHT22;700;51.906;8.404;2023-08-07T03:13:28;17.50;99.90
1411;DHT22;700;51.906;8.404;2023-08-07T03:18:29;17.50;99.90
1411;DHT22;700;51.906;8.404;2023-08-07T03:23:32;17.70;99.90
1411;DHT22;700;51.906;8.404;2023-08-07T03:28:34;17.50;99.90
1411;DHT22;700;51.906;8.404;2023-08-07T03:33:35;17.50;99.90
1411;DHT22;700;51.906;8.404;2023-08-07T03:38:35;17.50;99.90
1411;DHT22;700;51.906;8.404;2023-08-07T03:43:36;17.50;99.90
1411;DHT22;700;51.906;8.404;2023-08-07T03:48:39;17.50;99.90
1411;DHT22;700;51.906;8.404;2023-08-07T03:53:40;17.60;99.90
1411;DHT22;700;51.906;8.404;2023-08-07T03:58:41;17.70;99.90
1411;DHT22;700;51.906;8.404;2023-08-07T04:03:44;17.60;99.90
1411;DHT22;700;51.906;8.404;2023-08-07T04:08:48;17.50;99.90
1411;DHT22;700;51.906;8.404;2023-08-07T04:13:48;17.60;99.90
1411;DHT22;700;51.906;8.404;2023-08-07T04:18:51;17.80;99.90
1411;DHT22;700;51.906;8.404;2023-08-07T04:23:51;17.80;99.90
1411;DHT22;700;51.906;8.404;2023-08-07T04:28:54;17.70;99.90
1411;DHT22;700;51.906;8.404;2023-08-07T04:33:57;17.50;99.90
1411;DHT22;700;51.906;8.404;2023-08-07T04:39:02;17.70;99.90
1411;DHT22;700;51.906;8.404;2023-08-07T04:44:05;17.70;99.90
1411;DHT22;700;51.906;8.404;2023-08-07T04:49:05;17.70;99.90
1411;DHT22;700;51.906;8.404;2023-08-07T04:54:11;17.70;99.90
1411;DHT22;700;51.906;8.404;2023-08-07T04:59:14;17.80;99.90
1411;DHT22;700;51.906;8.404;2023-08-07T05:04:17;17.80;99.90
1411;DHT22;700;51.906;8.404;2023-08-07T05:09:17;17.80;99.90
1411;DHT22;700;51.906;8.404;2023-08-07T05:14:18;17.90;99.90
1411;DHT22;700;51.906;8.404;2023-08-07T05:19:21;17.90;99.90
1411;DHT22;700;51.906;8.404;2023-08-07T05:24:22;17.90;99.90
1411;DHT22;700;51.906;8.404;2023-08-07T05:29:23;18.00;99.90
1411;DHT22;700;51.906;8.404;2023-08-07T05:34:25;18.00;99.90
1411;DHT22;700;51.906;8.404;2023-08-07T05:39:28;17.90;99.90
1411;DHT22;700;51.906;8.404;2023-08-07T05:44:29;18.10;99.90
1411;DHT22;700;51.906;8.404;2023-08-07T05:49:30;18.20;99.90
1411;DHT22;700;51.906;8.404;2023-08-07T05:54:31;18.10;99.90
1411;DHT22;700;51.906;8.404;2023-08-07T05:59:34;18.20;99.90
1411;DHT22;700;51.906;8.404;2023-08-07T06:04:35;18.30;99.90
1411;DHT22;700;51.906;8.404;2023-08-07T06:09:35;18.20;99.90
1411;DHT22;700;51.906;8.404;2023-08-07T06:14:37;18.00;99.90
1411;DHT22;700;51.906;8.404;2023-08-07T06:19:40;17.90;99.90
1411;DHT22;700;51.906;8.404;2023-08-07T06:24:40;18.00;99.90
1411;DHT22;700;51.906;8.404;2023-08-07T06:29:43;17.90;99.90
1411;DHT22;700;51.906;8.404;2023-08-07T06:34:47;18.10;99.90
1411;DHT22;700;51.906;8.404;2023-08-07T06:39:49;18.10;99.90
1411;DHT22;700;51.906;8.404;2023-08-07T06:44:52;18.10;99.90
1411;DHT22;700;51.906;8.404;2023-08-07T06:49:55;18.30;99.90
1411;DHT22;700;51.906;8.404;2023-08-07T06:54:56;18.40;99.90
1411;DHT22;700;51.906;8.404;2023-08-07T06:59:59;18.40;99.90
1411;DHT22;700;51.906;8.404;2023-08-07T07:04:59;18.30;99.90
1411;DHT22;700;51.906;8.404;2023-08-07T07:10:00;18.50;99.90
1411;DHT22;700;51.906;8.404;2023-08-07T07:15:01;18.70;99.90
1411;DHT22;700;51.906;8.404;2023-08-07T07:20:04;18.60;99.90
1411;DHT22;700;51.906;8.404;2023-08-07T07:25:08;18.60;99.90
1411;DHT22;700;51.906;8.404;2023-08-07T07:30:09;18.30;99.90
1411;DHT22;700;51.906;8.404;2023-08-07T07:35:11;18.30;99.90
1411;DHT22;700;51.906;8.404;2023-08-07T07:40:14;18.20;99.90
1411;DHT22;700;51.906;8.404;2023-08-07T07:45:17;18.20;99.90
1411;DHT22;700;51.906;8.404;2023-08-07T07:50:20;18.20;99.90
1411;DHT22;700;51.906;8.404;2023-08-07T07:55:24;18.00;99.90
1411;DHT22;700;51.906;8.404;2023-08-07T08:00:26;18.20;99.90
1411;DHT22;700;51.906;8.404;2023-08-07T08:05:28;18.60;99.90
1411;DHT22;700;51.906;8.404;2023-08-07T08:10:29;18.80;99.90
1411;DHT22;700;51.906;8.404;2023-08-07T08:15:30;18.90;99.90
1411;DHT22;700;51.906;8.404;2023-08-07T08:20:33;19.30;99.90
1411;DHT22;700;51.906;8.404;2023-08-07T08:25:36;19.50;99.90
1411;DHT22;700;51.906;8.404;2023-08-07T08:30:39;19.50;99.90
1411;DHT22;700;51.906;8.404;2023-08-07T08:35:40;20.20;99.90
1411;DHT22;700;51.906;8.404;2023-08-07T08:40:44;20.50;99.90
1411;DHT22;700;51.906;8.404;2023-08-07T08:45:48;20.80;99.90
1411;DHT22;700;51.906;8.404;2023-08-07T08:50:49;21.20;99.90
1411;DHT22;700;51.906;8.404;2023-08-07T08:55:51;21.70;99.90
1411;DHT22;700;51.906;8.404;2023-08-07T09:00:52;21.90;99.90
1411;DHT22;700;51.906;8.404;2023-08-07T09:05:53;22.10;99.90
1411;DHT22;700;51.906;8.404;2023-08-07T09:10:59;22.10;99.90
1411;DHT22;700;51.906;8.404;2023-08-07T09:16:04;22.10;99.90
1411;DHT22;700;51.906;8.404;2023-08-07T09:21:07;22.60;99.90
1411;DHT22;700;51.906;8.404;2023-08-07T09:26:11;22.80;99.90
1411;DHT22;700;51.906;8.404;2023-08-07T09:31:14;23.10;99.90
1411;DHT22;700;51.906;8.404;2023-08-07T09:36:15;23.30;99.90
1411;DHT22;700;51.906;8.404;2023-08-07T09:41:18;23.50;99.90
1411;DHT22;700;51.906;8.404;2023-08-07T09:46:21;22.40;99.90
1411;DHT22;700;51.906;8.404;2023-08-07T09:51:22;22.80;99.90
1411;DHT22;700;51.906;8.404;2023-08-07T09:56:22;23.70;99.90
1411;DHT22;700;51.906;8.404;2023-08-07T10:01:25;24.00;99.90
1411;DHT22;700;51.906;8.404;2023-08-07T10:06:26;26.10;99.90
1411;DHT22;700;51.906;8.404;2023-08-07T10:11:27;29.50;99.90
1411;DHT22;700;51.906;8.404;2023-08-07T10:16:29;34.40;92.80
1411;DHT22;700;51.906;8.404;2023-08-07T10:21:35;35.20;69.10
1411;DHT22;700;51.906;8.404;2023-08-07T10:26:41;32.50;75.80
1411;DHT22;700;51.906;8.404;2023-08-07T10:31:44;32.40;79.50
1411;DHT22;700;51.906;8.404;2023-08-07T10:36:47;31.00;81.10
1411;DHT22;700;51.906;8.404;2023-08-07T10:41:52;30.90;80.60
1411;DHT22;700;51.906;8.404;2023-08-07T10:46:55;28.80;88.30
1411;DHT22;700;51.906;8.404;2023-08-07T10:52:02;26.40;97.70
1411;DHT22;700;51.906;8.404;2023-08-07T10:57:03;24.70;99.90
1411;DHT22;700;51.906;8.404;2023-08-07T11:02:11;26.30;99.90
1411;DHT22;700;51.906;8.404;2023-08-07T11:07:26;33.00;96.60
1411;DHT22;700;51.906;8.404;2023-08-07T11:12:29;38.30;70.80
1411;DHT22;700;51.906;8.404;2023-08-07T11:17:32;41.50;57.30
1411;DHT22;700;51.906;8.404;2023-08-07T11:22:35;36.80;53.10
1411;DHT22;700;51.906;8.404;2023-08-07T11:27:35;32.40;62.50
1411;DHT22;700;51.906;8.404;2023-08-07T11:32:41;28.80;69.40
1411;DHT22;700;51.906;8.404;2023-08-07T11:37:47;27.70;79.10
1411;DHT22;700;51.906;8.404;2023-08-07T11:42:48;27.50;83.20
1411;DHT22;700;51.906;8.404;2023-08-07T11:47:49;29.40;79.20
1411;DHT22;700;51.906;8.404;2023-08-07T11:52:49;27.30;79.30
1411;DHT22;700;51.906;8.404;2023-08-07T11:57:50;25.40;87.90
1411;DHT22;700;51.906;8.404;2023-08-07T12:02:53;23.90;93.00
1411;DHT22;700;51.906;8.404;2023-08-07T12:07:54;23.90;99.30
1411;DHT22;700;51.906;8.404;2023-08-07T12:12:59;30.80;88.40
1411;DHT22;700;51.906;8.404;2023-08-07T12:18:07;32.40;71.80
1411;DHT22;700;51.906;8.404;2023-08-07T12:23:14;29.60;75.10
1411;DHT22;700;51.906;8.404;2023-08-07T12:28:16;29.80;75.50
1411;DHT22;700;51.906;8.404;2023-08-07T12:33:18;32.60;65.00
1411;DHT22;700;51.906;8.404;2023-08-07T12:38:19;36.40;55.40
1411;DHT22;700;51.906;8.404;2023-08-07T12:43:20;35.50;52.20
1411;DHT22;700;51.906;8.404;2023-08-07T12:48:21;32.50;56.80
1411;DHT22;700;51.906;8.404;2023-08-07T12:53:21;29.80;63.00
1411;DHT22;700;51.906;8.404;2023-08-07T12:58:22;28.50;67.90
1411;DHT22;700;51.906;8.404;2023-08-07T13:03:28;27.40;70.30
1411;DHT22;700;51.906;8.404;2023-08-07T13:08:31;25.60;70.80
1411;DHT22;700;51.906;8.404;2023-08-07T13:13:33;24.20;75.20
1411;DHT22;700;51.906;8.404;2023-08-07T13:18:38;23.40;78.50
1411;DHT22;700;51.906;8.404;2023-08-07T13:23:39;23.50;82.90
1411;DHT22;700;51.906;8.404;2023-08-07T13:28:39;23.70;85.40
1411;DHT22;700;51.906;8.404;2023-08-07T13:33:42;23.60;83.70
1411;DHT22;700;51.906;8.404;2023-08-07T13:38:43;23.00;85.40
1411;DHT22;700;51.906;8.404;2023-08-07T13:43:44;22.90;87.10
1411;DHT22;700;51.906;8.404;2023-08-07T13:48:45;23.30;84.30
1411;DHT22;700;51.906;8.404;2023-08-07T13:53:45;26.50;76.80
1411;DHT22;700;51.906;8.404;2023-08-07T13:58:46;29.30;72.90
1411;DHT22;700;51.906;8.404;2023-08-07T14:03:47;29.20;65.40
1411;DHT22;700;51.906;8.404;2023-08-07T14:08:48;27.30;68.40
1411;DHT22;700;51.906;8.404;2023-08-07T14:13:51;26.90;71.40
1411;DHT22;700;51.906;8.404;2023-08-07T14:18:51;26.80;70.60
1411;DHT22;700;51.906;8.404;2023-08-07T14:23:52;27.20;71.60
1411;DHT22;700;51.906;8.404;2023-08-07T14:28:55;27.10;73.40
1411;DHT22;700;51.906;8.404;2023-08-07T14:33:56;27.10;72.30
1411;DHT22;700;51.906;8.404;2023-08-07T14:39:02;27.40;70.10
1411;DHT22;700;51.906;8.404;2023-08-07T14:44:03;27.10;70.50
1411;DHT22;700;51.906;8.404;2023-08-07T14:49:06;26.80;69.70
1411;DHT22;700;51.906;8.404;2023-08-07T14:54:06;26.30;72.00
1411;DHT22;700;51.906;8.404;2023-08-07T14:59:09;26.00;69.80
1411;DHT22;700;51.906;8.404;2023-08-07T15:04:10;25.80;70.40
1411;DHT22;700;51.906;8.404;2023-08-07T15:09:14;25.90;70.10
1411;DHT22;700;51.906;8.404;2023-08-07T15:14:15;25.70;68.30
1411;DHT22;700;51.906;8.404;2023-08-07T15:19:17;25.50;71.80
1411;DHT22;700;51.906;8.404;2023-08-07T15:24:20;25.30;73.70
1411;DHT22;700;51.906;8.404;2023-08-07T15:29:21;25.10;72.70
1411;DHT22;700;51.906;8.404;2023-08-07T15:34:24;25.20;73.30
1411;DHT22;700;51.906;8.404;2023-08-07T15:39:25;25.20;72.30
1411;DHT22;700;51.906;8.404;2023-08-07T15:44:25;24.90;70.20
1411;DHT22;700;51.906;8.404;2023-08-07T15:49:26;24.20;70.10
1411;DHT22;700;51.906;8.404;2023-08-07T15:54:27;24.10;71.80
1411;DHT22;700;51.906;8.404;2023-08-07T15:59:27;23.80;72.30
1411;DHT22;700;51.906;8.404;2023-08-07T16:04:28;23.40;71.70
1411;DHT22;700;51.906;8.404;2023-08-07T16:09:31;22.80;74.40
1411;DHT22;700;51.906;8.404;2023-08-07T16:14:34;22.40;83.30
1411;DHT22;700;51.906;8.404;2023-08-07T16:19:35;22.10;90.80
1411;DHT22;700;51.906;8.404;2023-08-07T16:24:35;21.80;93.40
1411;DHT22;700;51.906;8.404;2023-08-07T16:29:36;21.60;95.80
1411;DHT22;700;51.906;8.404;2023-08-07T16:34:39;21.50;98.40
1411;DHT22;700;51.906;8.404;2023-08-07T16:39:40;21.60;99.90
1411;DHT22;700;51.906;8.404;2023-08-07T16:44:43;21.50;99.90
1411;DHT22;700;51.906;8.404;2023-08-07T16:49:47;21.40;99.90
1411;DHT22;700;51.906;8.404;2023-08-07T16:54:51;21.20;99.90
1411;DHT22;700;51.906;8.404;2023-08-07T16:59:53;20.90;99.90
1411;DHT22;700;51.906;8.404;2023-08-07T17:04:56;20.70;99.90
1411;DHT22;700;51.906;8.404;2023-08-07T17:09:59;20.60;99.90
1411;DHT22;700;51.906;8.404;2023-08-07T17:15:00;20.40;99.90
1411;DHT22;700;51.906;8.404;2023-08-07T17:20:01;20.30;99.90
1411;DHT22;700;51.906;8.404;2023-08-07T17:25:03;20.60;99.90
1411;DHT22;700;51.906;8.404;2023-08-07T17:30:06;20.60;99.90
1411;DHT22;700;51.906;8.404;2023-08-07T17:35:07;20.40;99.90
1411;DHT22;700;51.906;8.404;2023-08-07T17:40:08;20.40;99.90
1411;DHT22;700;51.906;8.404;2023-08-07T17:45:12;20.30;99.90
1411;DHT22;700;51.906;8.404;2023-08-07T17:50:12;20.20;99.90
1411;DHT22;700;51.906;8.404;2023-08-07T17:55:15;20.20;99.90
1411;DHT22;700;51.906;8.404;2023-08-07T18:00:19;20.20;99.90
1411;DHT22;700;51.906;8.404;2023-08-07T18:05:22;20.20;99.90
1411;DHT22;700;51.906;8.404;2023-08-07T18:10:27;20.20;99.90
1411;DHT22;700;51.906;8.404;2023-08-07T18:15:27;20.10;99.90
1411;DHT22;700;51.906;8.404;2023-08-07T18:20:28;20.00;99.90
1411;DHT22;700;51.906;8.404;2023-08-07T18:25:28;19.70;99.90
1411;DHT22;700;51.906;8.404;2023-08-07T18:30:29;19.70;99.90
1411;DHT22;700;51.906;8.404;2023-08-07T18:35:30;19.60;99.90
1411;DHT22;700;51.906;8.404;2023-08-07T18:40:32;19.30;99.90
1411;DHT22;700;51.906;8.404;2023-08-07T18:45:33;19.10;99.90
1411;DHT22;700;51.906;8.404;2023-08-07T18:50:36;19.00;99.90
1411;DHT22;700;51.906;8.404;2023-08-07T18:55:41;18.90;99.90
1411;DHT22;700;51.906;8.404;2023-08-07T19:00:41;18.80;99.90
1411;DHT22;700;51.906;8.404;2023-08-07T19:05:42;18.60;99.90
1411;DHT22;700;51.906;8.404;2023-08-07T19:10:45;18.60;99.90
1411;DHT22;700;51.906;8.404;2023-08-07T19:15:49;18.50;99.90
1411;DHT22;700;51.906;8.404;2023-08-07T19:20:51;18.40;99.90
1411;DHT22;700;51.906;8.404;2023-08-07T19:25:52;18.30;99.90
1411;DHT22;700;51.906;8.404;2023-08-07T19:30:53;18.40;99.90
1411;DHT22;700;51.906;8.404;2023-08-07T19:35:53;18.40;99.90
1411;DHT22;700;51.906;8.404;2023-08-07T19:40:54;18.30;99.90
1411;DHT22;700;51.906;8.404;2023-08-07T19:45:54;18.20;99.90
1411;DHT22;700;51.906;8.404;2023-08-07T19:50:57;18.20;99.90
1411;DHT22;700;51.906;8.404;2023-08-07T19:55:59;17.70;99.90
1411;DHT22;700;51.906;8.404;2023-08-07T20:01:01;17.80;99.90
1411;DHT22;700;51.906;8.404;2023-08-07T20:06:04;17.80;99.90
1411;DHT22;700;51.906;8.404;2023-08-07T20:11:07;17.70;99.90
1411;DHT22;700;51.906;8.404;2023-08-07T20:16:10;17.60;99.90
1411;DHT22;700;51.906;8.404;2023-08-07T20:21:11;17.30;99.90
1411;DHT22;700;51.906;8.404;2023-08-07T20:26:12;17.30;99.90
1411;DHT22;700;51.906;8.404;2023-08-07T20:31:13;17.10;99.90
1411;DHT22;700;51.906;8.404;2023-08-07T20:36:14;17.10;99.90
1411;DHT22;700;51.906;8.404;2023-08-07T20:41:17;17.20;99.90
1411;DHT22;700;51.906;8.404;2023-08-07T20:46:22;16.90;99.90
1411;DHT22;700;51.906;8.404;2023-08-07T20:51:23;16.90;99.90
1411;DHT22;700;51.906;8.404;2023-08-07T20:56:23;16.90;99.90
1411;DHT22;700;51.906;8.404;2023-08-07T21:01:29;17.00;99.90
1411;DHT22;700;51.906;8.404;2023-08-07T21:06:29;16.80;99.90
1411;DHT22;700;51.906;8.404;2023-08-07T21:11:32;16.60;99.90
1411;DHT22;700;51.906;8.404;2023-08-07T21:16:33;16.50;99.90
1411;DHT22;700;51.906;8.404;2023-08-07T21:21:34;16.50;99.90
1411;DHT22;700;51.906;8.404;2023-08-07T21:26:38;16.50;99.90
1411;DHT22;700;51.906;8.404;2023-08-07T21:31:42;16.30;99.90
1411;DHT22;700;51.906;8.404;2023-08-07T21:36:42;16.30;99.90
1411;DHT22;700;51.906;8.404;2023-08-07T21:41:44;16.30;99.90
1411;DHT22;700;51.906;8.404;2023-08-07T21:46:49;16.50;99.90
1411;DHT22;700;51.906;8.404;2023-08-07T21:51:51;16.30;99.90
1411;DHT22;700;51.906;8.404;2023-08-07T21:56:51;16.40;99.90
1411;DHT22;700;51.906;8.404;2023-08-07T22:01:54;16.40;99.90
1411;DHT22;700;51.906;8.404;2023-08-07T22:06:55;16.30;99.90
1411;DHT22;700;51.906;8.404;2023-08-07T22:11:55;16.30;99.90
1411;DHT22;700;51.906;8.404;2023-08-07T22:16:56;16.10;99.90
1411;DHT22;700;51.906;8.404;2023-08-07T22:22:00;16.00;99.90
1411;DHT22;700;51.906;8.404;2023-08-07T22:27:06;15.90;99.90
1411;DHT22;700;51.906;8.404;2023-08-07T22:32:08;16.00;99.90
1411;DHT22;700;51.906;8.404;2023-08-07T22:37:09;16.00;99.90
1411;DHT22;700;51.906;8.404;2023-08-07T22:42:10;15.90;99.90
1411;DHT22;700;51.906;8.404;2023-08-07T22:47:10;15.90;99.90
1411;DHT22;700;51.906;8.404;2023-08-07T22:52:13;15.80;99.90
1411;DHT22;700;51.906;8.404;2023-08-07T22:57:18;15.90;99.90
1411;DHT22;700;51.906;8.404;2023-08-07T23:02:21;15.90;99.90
1411;DHT22;700;51.906;8.404;2023-08-07T23:07:22;15.90;99.90
1411;DHT22;700;51.906;8.404;2023-08-07T23:12:25;15.90;99.90
1411;DHT22;700;51.906;8.404;2023-08-07T23:17:26;15.90;99.90
1411;DHT22;700;51.906;8.404;2023-08-07T23:22:31;16.00;99.90
1411;DHT22;700;51.906;8.404;2023-08-07T23:27:31;15.70;99.90
1411;DHT22;700;51.906;8.404;2023-08-07T23:32:32;15.80;99.90
1411;DHT22;700;51.906;8.404;2023-08-07T23:37:33;16.00;99.90
1411;DHT22;700;51.906;8.404;2023-08-07T23:42:34;15.70;99.90
1411;DHT22;700;51.906;8.404;2023-08-07T23:47:38;15.70;99.90
1411;DHT22;700;51.906;8.404;2023-08-07T23:52:38;15.70;99.90
1411;DHT22;700;51.906;8.404;2023-08-07T23:57:41;16.10;99.90
